createdAt,value
2022-07-31T00:00:27.126Z,100445.22
2022-07-31T00:02:53.551Z,100453.16
2022-07-31T00:05:20.086Z,100452.19
2022-07-31T00:07:46.518Z,100455.38
2022-07-31T00:10:13.100Z,100448.22
2022-07-31T00:12:39.511Z,100451.56
2022-07-31T00:15:08.062Z,100447.44
2022-07-31T00:17:34.714Z,100448.72
2022-07-31T00:20:02.057Z,100445.16
2022-07-31T00:22:28.587Z,100444.78
2022-07-31T00:24:55.021Z,100437.13
2022-07-31T00:27:21.652Z,100432.09
2022-07-31T00:29:48.045Z,100424.53
2022-07-31T00:32:14.453Z,100423.06
2022-07-31T00:34:42.387Z,100428.16
2022-07-31T00:37:09.967Z,100428.66
2022-07-31T00:39:37.023Z,100437.47
2022-07-31T00:42:03.703Z,100424.59
2022-07-31T00:44:30.107Z,100421.31
2022-07-31T00:46:57.951Z,100422.72
2022-07-31T00:49:24.673Z,100428.63
2022-07-31T00:51:51.800Z,100430.66
2022-07-31T00:54:22.463Z,100429.00
2022-07-31T00:56:49.494Z,100425.66
2022-07-31T00:59:15.985Z,100425.31
2022-07-31T01:01:44.309Z,100422.25
2022-07-31T01:04:15.417Z,100421.44
2022-07-31T01:06:42.771Z,100416.94
2022-07-31T01:09:09.410Z,100416.66
2022-07-31T01:11:50.581Z,100414.00
2022-07-31T01:14:21.909Z,100419.25
2022-07-31T01:16:51.547Z,100417.09
2022-07-31T01:19:37.913Z,100420.56
2022-07-31T01:22:34.099Z,100410.59
2022-07-31T01:25:28.807Z,100407.63
2022-07-31T01:28:33.117Z,100413.56
2022-07-31T01:31:26.072Z,100404.63
2022-07-31T01:34:02.574Z,100403.78
2022-07-31T01:36:34.754Z,100410.03
2022-07-31T01:39:02.389Z,100404.97
2022-07-31T01:41:33.863Z,100408.19
2022-07-31T01:44:03.275Z,100399.41
2022-07-31T01:46:31.010Z,100406.22
2022-07-31T01:49:05.273Z,100395.72
2022-07-31T01:51:32.719Z,100395.84
2022-07-31T01:54:01.627Z,100404.25
2022-07-31T01:56:29.891Z,100392.88
2022-07-31T01:58:57.914Z,100397.50
2022-07-31T02:01:27.404Z,100394.47
2022-07-31T02:03:56.326Z,100382.03
2022-07-31T02:06:24.874Z,100386.97
2022-07-31T02:08:53.813Z,100391.00
2022-07-31T02:11:21.237Z,100379.63
2022-07-31T02:13:49.378Z,100392.00
2022-07-31T02:16:18.261Z,100391.00
2022-07-31T02:18:49.487Z,100384.84
2022-07-31T02:21:17.162Z,100392.06
2022-07-31T02:23:43.848Z,100389.78
2022-07-31T02:26:11.238Z,100400.47
2022-07-31T02:28:41.861Z,100400.06
2022-07-31T02:31:12.641Z,100398.09
2022-07-31T02:33:42.552Z,100399.81
2022-07-31T02:36:12.110Z,100397.56
2022-07-31T02:38:39.819Z,100396.50
2022-07-31T02:41:07.592Z,100386.03
2022-07-31T02:43:35.474Z,100392.88
2022-07-31T02:46:03.486Z,100386.09
2022-07-31T02:48:30.194Z,100392.81
2022-07-31T02:50:57.520Z,100386.75
2022-07-31T02:53:24.665Z,100386.94
2022-07-31T02:55:51.742Z,100387.91
2022-07-31T02:58:18.251Z,100382.56
2022-07-31T03:00:45.782Z,100389.97
2022-07-31T03:03:12.458Z,100387.00
2022-07-31T03:05:38.966Z,100385.84
2022-07-31T03:08:05.569Z,100388.34
2022-07-31T03:10:31.978Z,100387.47
2022-07-31T03:12:59.533Z,100385.75
2022-07-31T03:15:27.172Z,100384.63
2022-07-31T03:17:54.995Z,100388.09
2022-07-31T03:20:23.901Z,100387.16
2022-07-31T03:22:51.239Z,100386.00
2022-07-31T03:25:21.487Z,100380.63
2022-07-31T03:27:55.579Z,100383.75
2022-07-31T03:30:26.543Z,100375.44
2022-07-31T03:32:54.243Z,100379.69
2022-07-31T03:35:20.941Z,100385.09
2022-07-31T03:37:47.354Z,100378.81
2022-07-31T03:40:14.325Z,100374.91
2022-07-31T03:42:41.860Z,100374.53
2022-07-31T03:45:10.895Z,100376.41
2022-07-31T03:47:37.722Z,100377.50
2022-07-31T03:50:06.314Z,100383.66
2022-07-31T03:52:32.827Z,100381.06
2022-07-31T03:54:59.499Z,100388.66
2022-07-31T03:57:29.151Z,100380.91
2022-07-31T04:00:00.782Z,100381.44
2022-07-31T04:02:28.161Z,100383.06
2022-07-31T04:04:55.131Z,100385.31
2022-07-31T04:07:21.562Z,100374.78
2022-07-31T04:09:48.136Z,100385.97
2022-07-31T04:12:14.863Z,100380.41
2022-07-31T04:14:41.337Z,100387.31
2022-07-31T04:17:07.927Z,100391.47
2022-07-31T04:19:36.829Z,100384.34
2022-07-31T04:22:04.321Z,100391.47
2022-07-31T04:24:31.237Z,100390.31
2022-07-31T04:26:58.467Z,100386.75
2022-07-31T04:29:28.529Z,100390.41
2022-07-31T04:31:55.751Z,100388.25
2022-07-31T04:34:22.330Z,100387.81
2022-07-31T04:36:48.788Z,100384.91
2022-07-31T04:39:15.254Z,100377.34
2022-07-31T04:41:41.730Z,100383.19
2022-07-31T04:44:08.165Z,100385.09
2022-07-31T04:46:34.599Z,100383.50
2022-07-31T04:49:01.324Z,100379.19
2022-07-31T04:51:27.847Z,100384.69
2022-07-31T04:53:58.215Z,100376.16
2022-07-31T04:56:33.616Z,100379.19
2022-07-31T04:59:01.458Z,100378.72
2022-07-31T05:01:27.921Z,100382.13
2022-07-31T05:03:54.468Z,100375.53
2022-07-31T05:06:20.886Z,100377.28
2022-07-31T05:08:47.340Z,100374.03
2022-07-31T05:11:23.278Z,100381.28
2022-07-31T05:13:58.447Z,100389.41
2022-07-31T05:16:26.184Z,100386.03
2022-07-31T05:18:52.839Z,100384.31
2022-07-31T05:21:19.421Z,100384.09
2022-07-31T05:23:47.752Z,100384.66
2022-07-31T05:26:15.813Z,100383.69
2022-07-31T05:28:44.061Z,100384.09
2022-07-31T05:31:13.439Z,100379.44
2022-07-31T05:33:41.076Z,100388.00
2022-07-31T05:36:07.684Z,100392.09
2022-07-31T05:38:34.648Z,100388.22
2022-07-31T05:41:01.085Z,100383.34
2022-07-31T05:43:27.869Z,100384.41
2022-07-31T05:45:54.700Z,100375.84
2022-07-31T05:48:21.954Z,100362.31
2022-07-31T05:50:49.673Z,100371.25
2022-07-31T05:53:16.937Z,100363.88
2022-07-31T05:55:45.345Z,100364.94
2022-07-31T05:58:16.553Z,100369.25
2022-07-31T06:00:45.340Z,100368.94
2022-07-31T06:03:14.630Z,100371.59
2022-07-31T06:05:41.254Z,100364.47
2022-07-31T06:08:09.570Z,100377.78
2022-07-31T06:10:37.307Z,100376.34
2022-07-31T06:13:05.523Z,100375.25
2022-07-31T06:15:36.072Z,100383.47
2022-07-31T06:18:04.031Z,100387.91
2022-07-31T06:20:30.645Z,100392.00
2022-07-31T06:22:57.285Z,100381.13
2022-07-31T06:25:23.772Z,100385.19
2022-07-31T06:27:59.405Z,100386.72
2022-07-31T06:30:27.737Z,100390.59
2022-07-31T06:32:54.172Z,100394.91
2022-07-31T06:35:20.689Z,100391.03
2022-07-31T06:37:47.174Z,100388.88
2022-07-31T06:40:14.309Z,100388.88
2022-07-31T06:42:41.776Z,100394.59
2022-07-31T06:45:08.959Z,100389.19
2022-07-31T06:47:35.425Z,100401.00
2022-07-31T06:50:02.322Z,100396.13
2022-07-31T06:52:28.770Z,100393.66
2022-07-31T06:54:55.239Z,100387.03
2022-07-31T06:57:21.893Z,100394.06
2022-07-31T06:59:48.415Z,100393.63
2022-07-31T07:02:14.897Z,100394.28
2022-07-31T07:05:04.729Z,100392.53
2022-07-31T07:07:31.711Z,100392.28
2022-07-31T07:09:58.729Z,100389.00
2022-07-31T07:12:25.259Z,100382.19
2022-07-31T07:14:53.383Z,100378.63
2022-07-31T07:17:19.860Z,100376.16
2022-07-31T07:19:46.437Z,100371.28
2022-07-31T07:22:31.635Z,100373.47
2022-07-31T07:24:59.744Z,100368.41
2022-07-31T07:27:26.234Z,100372.63
2022-07-31T07:29:52.631Z,100368.47
2022-07-31T07:32:19.047Z,100371.72
2022-07-31T07:34:45.464Z,100369.72
2022-07-31T07:37:12.560Z,100369.09
2022-07-31T07:39:38.993Z,100371.00
2022-07-31T07:42:05.849Z,100365.53
2022-07-31T07:44:32.442Z,100363.53
2022-07-31T07:46:58.878Z,100353.16
2022-07-31T07:49:25.377Z,100359.00
2022-07-31T07:51:58.802Z,100354.88
2022-07-31T07:54:26.820Z,100360.06
2022-07-31T07:56:54.848Z,100360.00
2022-07-31T07:59:21.492Z,100351.00
2022-07-31T08:01:48.022Z,100357.34
2022-07-31T08:04:14.402Z,100351.00
2022-07-31T08:06:40.866Z,100363.22
2022-07-31T08:09:07.317Z,100345.00
2022-07-31T08:11:33.952Z,100346.75
2022-07-31T08:14:00.380Z,100348.34
2022-07-31T08:16:26.874Z,100333.41
2022-07-31T08:18:54.698Z,100338.75
2022-07-31T08:21:21.762Z,100337.84
2022-07-31T08:23:48.366Z,100336.06
2022-07-31T08:26:14.839Z,100331.94
2022-07-31T08:28:41.580Z,100331.09
2022-07-31T08:31:17.555Z,100325.91
2022-07-31T08:33:43.964Z,100322.53
2022-07-31T08:36:10.483Z,100322.69
2022-07-31T08:38:37.052Z,100317.56
2022-07-31T08:41:03.587Z,100315.09
2022-07-31T08:43:59.811Z,100326.31
2022-07-31T08:46:18.994Z,100311.13
2022-07-31T08:48:46.313Z,100311.91
2022-07-31T08:51:13.764Z,100308.13
2022-07-31T08:53:42.461Z,100315.63
2022-07-31T08:56:09.324Z,100312.09
2022-07-31T08:58:39.330Z,100311.38
2022-07-31T09:01:08.118Z,100316.00
2022-07-31T09:03:36.004Z,100314.88
2022-07-31T09:06:02.843Z,100309.56
2022-07-31T09:08:34.789Z,100303.28
2022-07-31T09:11:11.949Z,100302.41
2022-07-31T09:13:38.677Z,100302.56
2022-07-31T09:16:06.145Z,100293.75
2022-07-31T09:18:33.342Z,100291.31
2022-07-31T09:21:02.058Z,100298.44
2022-07-31T09:23:29.662Z,100286.81
2022-07-31T09:25:58.917Z,100284.16
2022-07-31T09:28:33.880Z,100279.94
2022-07-31T09:31:00.761Z,100275.81
2022-07-31T09:33:29.622Z,100278.81
2022-07-31T09:35:57.297Z,100276.34
2022-07-31T09:38:32.234Z,100273.75
2022-07-31T09:41:20.377Z,100277.41
2022-07-31T09:44:00.973Z,100275.47
2022-07-31T09:46:42.213Z,100270.78
2022-07-31T09:49:09.194Z,100269.56
2022-07-31T09:51:40.623Z,100264.59
2022-07-31T09:54:07.443Z,100256.72
2022-07-31T09:56:35.007Z,100254.84
2022-07-31T09:59:02.145Z,100260.84
2022-07-31T10:01:30.840Z,100251.41
2022-07-31T10:04:00.347Z,100245.75
2022-07-31T10:06:31.486Z,100246.03
2022-07-31T10:09:00.026Z,100240.69
2022-07-31T10:11:29.109Z,100236.38
2022-07-31T10:13:59.869Z,100232.28
2022-07-31T10:16:28.318Z,100232.97
2022-07-31T10:19:00.090Z,100227.44
2022-07-31T10:21:33.759Z,100235.00
2022-07-31T10:24:02.733Z,100223.69
2022-07-31T10:26:50.581Z,100211.91
2022-07-31T10:29:17.906Z,100213.72
2022-07-31T10:31:46.255Z,100210.16
2022-07-31T10:34:15.639Z,100210.53
2022-07-31T10:36:45.247Z,100202.41
2022-07-31T10:39:24.795Z,100209.84
2022-07-31T10:41:55.209Z,100209.84
2022-07-31T10:44:38.507Z,100205.91
2022-07-31T10:47:13.196Z,100200.06
2022-07-31T10:49:40.935Z,100193.91
2022-07-31T10:52:07.609Z,100178.09
2022-07-31T10:54:46.630Z,100179.94
2022-07-31T10:57:27.386Z,100167.75
2022-07-31T10:59:54.186Z,100158.81
2022-07-31T11:02:28.640Z,100155.44
2022-07-31T11:05:06.796Z,100157.41
2022-07-31T11:07:33.271Z,100142.41
2022-07-31T11:10:14.297Z,100144.84
2022-07-31T11:12:41.140Z,100147.88
2022-07-31T11:15:22.038Z,100140.66
2022-07-31T11:18:20.166Z,100142.47
2022-07-31T11:20:35.774Z,100142.81
2022-07-31T11:23:05.389Z,100135.31
2022-07-31T11:25:34.920Z,100146.06
2022-07-31T11:28:10.474Z,100150.19
2022-07-31T11:30:49.881Z,100147.78
2022-07-31T11:33:16.724Z,100145.56
2022-07-31T11:35:43.169Z,100145.38
2022-07-31T11:38:09.647Z,100136.13
2022-07-31T11:40:36.566Z,100138.91
2022-07-31T11:43:25.780Z,100137.84
2022-07-31T11:45:54.878Z,100138.41
2022-07-31T11:48:24.559Z,100130.69
2022-07-31T11:50:53.765Z,100130.38
2022-07-31T11:53:21.292Z,100126.16
2022-07-31T11:55:53.851Z,100117.72
2022-07-31T11:58:22.224Z,100112.81
2022-07-31T12:01:01.601Z,100106.34
2022-07-31T12:03:36.655Z,100102.22
2022-07-31T12:06:04.095Z,100097.47
2022-07-31T12:08:30.851Z,100086.88
2022-07-31T12:10:59.782Z,100090.47
2022-07-31T12:13:27.580Z,100085.09
2022-07-31T12:16:06.617Z,100073.47
2022-07-31T12:18:52.814Z,100082.28
2022-07-31T12:21:20.097Z,100083.69
2022-07-31T12:23:49.338Z,100075.91
2022-07-31T12:26:26.016Z,100074.53
2022-07-31T12:29:02.742Z,100082.63
2022-07-31T12:31:32.385Z,100075.53
2022-07-31T12:33:58.883Z,100076.03
2022-07-31T12:36:25.303Z,100078.44
2022-07-31T12:39:00.395Z,100072.69
2022-07-31T12:41:28.421Z,100064.16
2022-07-31T12:43:55.139Z,100057.22
2022-07-31T12:46:35.767Z,100064.81
2022-07-31T12:49:03.221Z,100055.41
2022-07-31T12:51:46.091Z,100059.03
2022-07-31T12:54:16.667Z,100057.91
2022-07-31T12:56:44.786Z,100059.53
2022-07-31T12:59:12.062Z,100045.28
2022-07-31T13:01:38.680Z,100045.19
2022-07-31T13:04:08.042Z,100043.00
2022-07-31T13:06:48.381Z,100058.03
2022-07-31T13:09:14.817Z,100047.31
2022-07-31T13:11:46.892Z,100041.09
2022-07-31T13:14:16.732Z,100035.00
2022-07-31T13:16:43.848Z,100029.13
2022-07-31T13:19:10.576Z,100033.41
2022-07-31T13:21:47.896Z,100033.69
2022-07-31T13:24:19.812Z,100034.44
2022-07-31T13:26:47.415Z,100030.94
2022-07-31T13:29:14.155Z,100025.88
2022-07-31T13:31:40.778Z,100020.84
2022-07-31T13:34:07.265Z,100034.03
2022-07-31T13:36:38.858Z,100025.97
2022-07-31T13:39:09.417Z,100031.88
2022-07-31T13:41:36.666Z,100018.97
2022-07-31T13:44:06.273Z,100017.31
2022-07-31T13:46:32.789Z,100008.97
2022-07-31T13:48:59.686Z,100014.00
2022-07-31T13:51:29.242Z,100015.44
2022-07-31T13:53:56.366Z,100011.75
2022-07-31T13:56:38.941Z,100020.34
2022-07-31T13:59:09.320Z,100017.44
2022-07-31T14:02:02.775Z,100012.88
2022-07-31T14:04:23.816Z,100015.09
2022-07-31T14:06:51.676Z,100009.31
2022-07-31T14:09:19.237Z,100004.88
2022-07-31T14:11:46.117Z,100006.38
2022-07-31T14:14:14.738Z,100002.22
2022-07-31T14:16:49.558Z,100004.97
2022-07-31T14:19:15.991Z,99995.38
2022-07-31T14:21:56.313Z,100003.81
2022-07-31T14:24:24.992Z,99996.72
2022-07-31T14:26:51.557Z,99997.44
2022-07-31T14:29:17.973Z,99994.47
2022-07-31T14:31:44.486Z,99996.75
2022-07-31T14:34:10.898Z,100002.00
2022-07-31T14:36:37.384Z,99995.34
2022-07-31T14:39:03.821Z,99992.03
2022-07-31T14:41:30.347Z,99991.03
2022-07-31T14:43:56.792Z,99992.38
2022-07-31T14:46:23.232Z,99996.28
2022-07-31T14:48:49.737Z,99993.38
2022-07-31T14:51:19.710Z,99992.50
2022-07-31T14:53:47.078Z,99994.97
2022-07-31T14:56:13.684Z,99990.91
2022-07-31T14:58:58.583Z,99987.09
2022-07-31T15:01:30.501Z,99983.41
2022-07-31T15:03:57.795Z,99983.50
2022-07-31T15:06:40.865Z,99980.81
2022-07-31T15:09:10.892Z,99982.25
2022-07-31T15:11:59.068Z,99982.75
2022-07-31T15:14:23.803Z,99972.41
2022-07-31T15:16:50.259Z,99977.25
2022-07-31T15:19:16.750Z,99974.69
2022-07-31T15:22:09.955Z,99967.88
2022-07-31T15:24:33.041Z,99972.22
2022-07-31T15:26:59.466Z,99967.00
2022-07-31T15:29:25.911Z,99966.25
2022-07-31T15:32:12.356Z,99965.56
2022-07-31T15:34:39.141Z,99963.22
2022-07-31T15:37:06.289Z,99969.19
2022-07-31T15:39:32.933Z,99964.34
2022-07-31T15:41:59.484Z,99956.69
2022-07-31T15:44:26.035Z,99964.94
2022-07-31T15:46:52.438Z,99962.72
2022-07-31T15:49:19.099Z,99966.06
2022-07-31T15:51:45.895Z,99953.53
2022-07-31T15:54:12.329Z,99954.84
2022-07-31T15:56:38.803Z,99951.91
2022-07-31T15:59:06.321Z,99950.13
2022-07-31T16:01:32.868Z,99950.41
2022-07-31T16:03:59.508Z,99958.16
2022-07-31T16:06:28.001Z,99952.28
2022-07-31T16:08:58.669Z,99949.16
2022-07-31T16:11:25.073Z,99947.81
2022-07-31T16:14:11.515Z,99942.78
2022-07-31T16:16:37.932Z,99945.75
2022-07-31T16:19:04.383Z,99936.09
2022-07-31T16:21:30.870Z,99939.38
2022-07-31T16:23:57.359Z,99951.19
2022-07-31T16:26:23.765Z,99935.78
2022-07-31T16:28:54.022Z,99932.28
2022-07-31T16:31:29.851Z,99927.53
2022-07-31T16:33:57.165Z,99922.03
2022-07-31T16:36:24.729Z,99924.00
2022-07-31T16:39:18.622Z,99922.41
2022-07-31T16:41:38.856Z,99922.34
2022-07-31T16:44:21.258Z,99923.50
2022-07-31T16:46:51.325Z,99924.41
2022-07-31T16:49:35.681Z,99928.34
2022-07-31T16:52:04.481Z,99929.16
2022-07-31T16:54:30.973Z,99919.56
2022-07-31T16:56:57.434Z,99919.69
2022-07-31T16:59:23.970Z,99922.13
2022-07-31T17:01:57.474Z,99928.19
2022-07-31T17:04:26.993Z,99928.78
2022-07-31T17:06:53.418Z,99935.22
2022-07-31T17:09:20.032Z,99934.50
2022-07-31T17:11:49.166Z,99931.25
2022-07-31T17:14:17.203Z,99926.22
2022-07-31T17:16:47.475Z,99921.81
2022-07-31T17:19:16.077Z,99929.06
2022-07-31T17:21:44.302Z,99925.19
2022-07-31T17:24:15.657Z,99920.25
2022-07-31T17:26:43.567Z,99927.69
2022-07-31T17:29:09.988Z,99924.84
2022-07-31T17:31:36.430Z,99931.91
2022-07-31T17:34:07.234Z,99941.59
2022-07-31T17:36:35.827Z,99940.66
2022-07-31T17:39:02.302Z,99940.28
2022-07-31T17:41:28.772Z,99945.31
2022-07-31T17:43:55.208Z,99942.84
2022-07-31T17:46:34.273Z,99943.53
2022-07-31T17:49:02.836Z,99948.84
2022-07-31T17:51:29.370Z,99951.63
2022-07-31T17:53:59.377Z,99953.25
2022-07-31T17:56:26.712Z,99964.16
2022-07-31T17:58:53.824Z,99968.84
2022-07-31T18:01:23.355Z,99964.09
2022-07-31T18:03:52.252Z,99974.47
2022-07-31T18:06:18.705Z,99975.22
2022-07-31T18:08:45.155Z,99971.97
2022-07-31T18:11:11.578Z,99977.97
2022-07-31T18:13:47.850Z,99975.75
2022-07-31T18:16:17.481Z,99978.47
2022-07-31T18:18:44.198Z,99986.53
2022-07-31T18:21:11.772Z,99987.28
2022-07-31T18:23:43.687Z,99982.78
2022-07-31T18:26:14.207Z,99994.97
2022-07-31T18:28:40.735Z,99993.75
2022-07-31T18:31:31.606Z,99996.19
2022-07-31T18:33:53.659Z,99998.28
2022-07-31T18:36:21.163Z,99999.50
2022-07-31T18:38:47.858Z,99998.97
2022-07-31T18:41:14.440Z,100006.66
2022-07-31T18:43:40.899Z,100004.78
2022-07-31T18:46:07.412Z,99999.47
2022-07-31T18:48:34.303Z,100004.59
2022-07-31T18:51:04.873Z,100003.03
2022-07-31T18:53:32.632Z,100010.75
2022-07-31T18:55:59.135Z,100011.09
2022-07-31T18:58:25.589Z,100012.91
2022-07-31T19:00:55.307Z,100016.91
2022-07-31T19:03:23.229Z,100013.94
2022-07-31T19:05:50.795Z,100005.50
2022-07-31T19:08:17.216Z,100015.38
2022-07-31T19:10:43.696Z,100017.69
2022-07-31T19:13:18.986Z,100018.97
2022-07-31T19:15:50.415Z,100018.88
2022-07-31T19:18:16.913Z,100024.94
2022-07-31T19:20:56.450Z,100021.53
2022-07-31T19:23:27.065Z,100040.44
2022-07-31T19:26:02.628Z,100029.16
2022-07-31T19:28:34.726Z,100034.56
2022-07-31T19:31:01.168Z,100027.50
2022-07-31T19:33:27.621Z,100038.50
2022-07-31T19:36:00.887Z,100037.19
2022-07-31T19:38:29.491Z,100041.72
2022-07-31T19:40:55.922Z,100045.66
2022-07-31T19:43:22.920Z,100045.22
2022-07-31T19:46:09.304Z,100054.56
2022-07-31T19:48:36.614Z,100052.97
2022-07-31T19:51:03.874Z,100050.63
2022-07-31T19:53:30.457Z,100052.72
2022-07-31T19:55:57.769Z,100055.41
2022-07-31T19:58:24.392Z,100061.56
2022-07-31T20:00:50.809Z,100062.78
2022-07-31T20:03:17.422Z,100064.03
2022-07-31T20:05:43.884Z,100062.56
2022-07-31T20:08:10.417Z,100065.53
2022-07-31T20:10:36.935Z,100068.84
2022-07-31T20:13:03.396Z,100068.25
2022-07-31T20:15:51.657Z,100077.13
2022-07-31T20:18:26.706Z,100072.88
2022-07-31T20:21:03.310Z,100082.81
2022-07-31T20:23:30.941Z,100079.19
2022-07-31T20:25:57.813Z,100092.97
2022-07-31T20:28:26.153Z,100090.38
2022-07-31T20:30:53.148Z,100098.69
2022-07-31T20:33:19.696Z,100087.38
2022-07-31T20:35:48.614Z,100084.50
2022-07-31T20:38:19.483Z,100096.41
2022-07-31T20:40:53.524Z,100086.31
2022-07-31T20:43:26.313Z,100090.28
2022-07-31T20:45:54.100Z,100095.31
2022-07-31T20:48:23.743Z,100092.00
2022-07-31T20:50:50.595Z,100084.44
2022-07-31T20:53:17.382Z,100092.59
2022-07-31T20:55:49.367Z,100091.59
2022-07-31T20:58:20.206Z,100089.56
2022-07-31T21:00:47.882Z,100086.84
2022-07-31T21:03:15.152Z,100083.97
2022-07-31T21:05:41.833Z,100087.31
2022-07-31T21:08:08.281Z,100092.72
2022-07-31T21:10:35.497Z,100098.28
2022-07-31T21:13:01.967Z,100089.41
2022-07-31T21:15:41.626Z,100090.28
2022-07-31T21:18:12.729Z,100102.16
2022-07-31T21:20:51.466Z,100102.28
2022-07-31T21:23:24.974Z,100100.50
2022-07-31T21:25:58.909Z,100101.41
2022-07-31T21:28:27.874Z,100099.22
2022-07-31T21:30:56.012Z,100101.91
2022-07-31T21:33:26.139Z,100108.53
2022-07-31T21:35:54.285Z,100104.19
2022-07-31T21:38:21.545Z,100102.59
2022-07-31T21:40:48.640Z,100097.28
2022-07-31T21:43:18.678Z,100108.75
2022-07-31T21:45:57.191Z,100102.72
2022-07-31T21:48:29.673Z,100104.28
2022-07-31T21:50:56.343Z,100103.84
2022-07-31T21:53:23.741Z,100110.41
2022-07-31T21:55:50.821Z,100115.56
2022-07-31T21:58:17.682Z,100115.63
2022-07-31T22:00:44.672Z,100121.72
2022-07-31T22:03:11.302Z,100124.16
2022-07-31T22:06:10.020Z,100119.19
2022-07-31T22:08:36.565Z,100130.66
2022-07-31T22:11:03.254Z,100134.06
2022-07-31T22:13:29.803Z,100136.34
2022-07-31T22:16:00.019Z,100139.22
2022-07-31T22:18:29.238Z,100134.78
2022-07-31T22:20:56.242Z,100136.16
2022-07-31T22:23:23.023Z,100141.84
2022-07-31T22:25:49.667Z,100141.56
2022-07-31T22:28:21.805Z,100146.63
2022-07-31T22:30:48.771Z,100144.78
2022-07-31T22:33:15.374Z,100145.13
2022-07-31T22:35:42.222Z,100146.31
2022-07-31T22:38:11.280Z,100145.09
2022-07-31T22:40:37.902Z,100160.06
2022-07-31T22:44:09.518Z,100162.88
2022-07-31T22:45:53.373Z,100150.38
2022-07-31T22:48:21.717Z,100166.31
2022-07-31T22:50:49.241Z,100168.31
2022-07-31T22:53:15.788Z,100163.56
2022-07-31T22:55:42.280Z,100167.28
2022-07-31T22:58:11.244Z,100169.63
2022-07-31T23:00:38.576Z,100169.84
2022-07-31T23:03:05.066Z,100177.84
2022-07-31T23:06:28.096Z,100173.81
2022-07-31T23:08:18.059Z,100173.94
2022-07-31T23:10:44.453Z,100180.38
2022-07-31T23:13:10.882Z,100182.34
2022-07-31T23:15:37.287Z,100182.16
2022-07-31T23:18:03.917Z,100181.38
2022-07-31T23:20:30.328Z,100175.41
2022-07-31T23:22:56.754Z,100184.38
2022-07-31T23:25:23.697Z,100183.16
2022-07-31T23:27:50.128Z,100184.81
2022-07-31T23:30:16.555Z,100181.53
2022-07-31T23:32:43.015Z,100173.72
2022-07-31T23:35:10.002Z,100173.09
2022-07-31T23:37:36.675Z,100174.59
2022-07-31T23:40:03.609Z,100166.97
2022-07-31T23:42:38.806Z,100170.47
2022-07-31T23:45:11.467Z,100173.94
2022-07-31T23:47:45.493Z,100170.81
2022-07-31T23:50:13.557Z,100173.81
2022-07-31T23:52:40.009Z,100177.91
2022-07-31T23:55:06.589Z,100172.88
2022-07-31T23:57:34.773Z,100174.88
